Time;durP1;ratioP1;P1;durP2;ratioP2;P2;SDS_P1;SDS_P2;PMS_P1;PMS_P2;Temp;Humidity;BMP_temperature;BMP_pressure;BME280_temperature;BME280_humidity;BME280_pressure;Samples;Min_cycle;Max_cycle;Signal;HPM_P1;HPM_P2
2023/12/20 00:01:38;;;;;;;23.25;5.53;;;9.50;99.90;;;;;;4998778;28;20100;-73
2023/12/20 00:04:04;;;;;;;25.92;6.38;;;9.50;99.90;;;;;;4997705;28;20022;-73
2023/12/20 00:06:30;;;;;;;16.63;4.40;;;9.50;99.90;;;;;;4994491;28;20390;-74
2023/12/20 00:08:57;;;;;;;23.60;4.93;;;9.40;99.90;;;;;;4981536;28;20022;-79
2023/12/20 00:11:24;;;;;;;19.85;3.92;;;9.40;99.90;;;;;;4997311;28;20516;-74
2023/12/20 00:13:52;;;;;;;19.13;4.75;;;9.30;99.90;;;;;;4995490;28;20030;-74
2023/12/20 00:16:18;;;;;;;25.50;4.10;;;9.20;99.90;;;;;;4997608;28;20056;-74
2023/12/20 00:18:43;;;;;;;21.50;4.35;;;9.20;99.90;;;;;;4993498;28;20073;-73
2023/12/20 00:21:09;;;;;;;18.25;3.65;;;9.10;99.90;;;;;;4997897;28;20046;-73
2023/12/20 00:23:35;;;;;;;18.73;3.72;;;9.00;99.90;;;;;;4997451;28;20426;-74
2023/12/20 00:26:01;;;;;;;19.10;3.95;;;9.00;99.90;;;;;;4995842;28;20072;-74
2023/12/20 00:28:26;;;;;;;12.48;3.72;;;8.80;99.90;;;;;;5000666;28;20014;-74
2023/12/20 00:30:52;;;;;;;25.55;4.15;;;8.80;99.90;;;;;;4995204;28;20046;-74
2023/12/20 00:33:18;;;;;;;18.15;3.90;;;8.80;99.90;;;;;;4994220;28;20026;-74
2023/12/20 00:35:44;;;;;;;15.32;3.50;;;8.70;99.90;;;;;;4979315;28;20487;-75
2023/12/20 00:38:11;;;;;;;13.65;3.15;;;8.70;99.90;;;;;;4984762;28;20022;-73
2023/12/20 00:40:37;;;;;;;20.10;3.70;;;8.60;99.90;;;;;;4997770;28;20564;-73
2023/12/20 00:43:03;;;;;;;27.67;5.05;;;8.70;99.90;;;;;;4994977;28;20030;-74
2023/12/20 00:45:28;;;;;;;20.63;3.97;;;8.60;99.90;;;;;;4996698;28;20093;-74
2023/12/20 00:47:54;;;;;;;19.48;3.05;;;8.60;99.90;;;;;;4996951;28;20076;-73
2023/12/20 00:50:21;;;;;;;20.17;3.50;;;8.60;99.90;;;;;;4993303;28;20026;-73
2023/12/20 00:52:49;;;;;;;19.45;3.08;;;8.60;99.90;;;;;;4996622;28;20034;-74
2023/12/20 00:55:16;;;;;;;23.08;3.20;;;8.70;99.90;;;;;;4997060;28;20067;-74
2023/12/20 00:57:47;;;;;;;23.50;3.65;;;8.60;99.90;;;;;;4980752;28;20056;-74
2023/12/20 01:00:16;;;;;;;20.13;3.13;;;8.60;99.90;;;;;;4996253;28;20038;-74
2023/12/20 01:02:42;;;;;;;15.52;2.75;;;8.60;99.90;;;;;;4984774;28;20120;-76
2023/12/20 01:05:09;;;;;;;26.85;3.67;;;8.60;99.90;;;;;;4994292;28;20042;-74
2023/12/20 01:07:40;;;;;;;16.50;3.25;;;8.60;99.90;;;;;;5010149;28;20179;-75
2023/12/20 01:10:07;;;;;;;20.97;4.93;;;8.50;99.90;;;;;;5012281;28;20356;-74
2023/12/20 01:12:33;;;;;;;14.20;4.15;;;8.50;99.90;;;;;;4993464;28;20128;-73
2023/12/20 01:15:01;;;;;;;18.75;3.75;;;8.50;99.90;;;;;;5008693;28;20040;-75
2023/12/20 01:17:29;;;;;;;20.48;3.65;;;8.50;99.90;;;;;;5006922;28;20065;-74
2023/12/20 01:19:55;;;;;;;20.75;3.67;;;8.30;99.90;;;;;;4991200;28;20116;-75
2023/12/20 01:22:23;;;;;;;24.25;3.78;;;8.40;99.90;;;;;;4986476;28;20141;-75
2023/12/20 01:24:51;;;;;;;24.13;4.03;;;8.20;99.90;;;;;;4988183;28;20482;-74
2023/12/20 01:27:17;;;;;;;15.40;3.95;;;8.20;99.90;;;;;;4994568;28;20038;-74
2023/12/20 01:29:43;;;;;;;17.63;3.38;;;8.20;99.90;;;;;;5009799;28;21382;-75
2023/12/20 01:32:11;;;;;;;17.13;3.38;;;8.20;99.90;;;;;;4989593;28;20046;-74
2023/12/20 01:34:42;;;;;;;17.73;3.95;;;8.20;99.90;;;;;;5008247;28;20474;-75
2023/12/20 01:37:08;;;;;;;22.30;3.40;;;8.10;99.90;;;;;;4994640;28;20360;-76
2023/12/20 01:39:35;;;;;;;19.83;3.80;;;8.30;99.90;;;;;;5009897;28;20025;-75
2023/12/20 01:42:04;;;;;;;25.30;4.07;;;8.10;99.90;;;;;;5011130;28;20076;-74
2023/12/20 01:44:30;;;;;;;22.27;3.63;;;8.10;99.90;;;;;;4975525;28;20034;-74
2023/12/20 01:46:58;;;;;;;21.60;3.92;;;8.10;99.90;;;;;;5010579;28;20048;-74
2023/12/20 01:49:24;;;;;;;11.48;3.10;;;8.00;99.90;;;;;;4993996;28;20021;-74
2023/12/20 01:51:52;;;;;;;14.90;3.92;;;8.00;99.90;;;;;;4994486;28;20037;-74
2023/12/20 01:54:21;;;;;;;24.02;4.03;;;8.10;99.90;;;;;;4991368;28;20064;-74
2023/12/20 01:56:49;;;;;;;27.30;3.80;;;8.10;99.90;;;;;;4994675;28;20029;-78
2023/12/20 01:59:15;;;;;;;18.70;4.38;;;8.10;99.90;;;;;;4993020;28;20116;-74
2023/12/20 02:01:41;;;;;;;16.73;4.00;;;8.10;99.90;;;;;;4993789;28;20137;-74
2023/12/20 02:04:11;;;;;;;14.48;4.50;;;8.10;99.90;;;;;;5009183;28;20041;-75
2023/12/20 02:06:40;;;;;;;13.93;3.97;;;8.00;99.90;;;;;;4994521;28;20030;-74
2023/12/20 02:09:07;;;;;;;22.73;3.67;;;8.00;99.90;;;;;;5010288;28;20566;-74
2023/12/20 02:11:35;;;;;;;24.50;4.32;;;8.00;99.90;;;;;;5011028;28;20036;-74
2023/12/20 02:14:01;;;;;;;27.73;5.40;;;8.00;99.90;;;;;;4993086;28;20025;-74
2023/12/20 02:16:29;;;;;;;20.50;4.68;;;8.10;99.90;;;;;;5010350;28;20030;-75
2023/12/20 02:18:54;;;;;;;14.38;4.15;;;8.10;99.90;;;;;;4991683;28;20037;-74
2023/12/20 02:21:25;;;;;;;19.80;4.32;;;8.10;99.90;;;;;;5010655;28;20034;-74
2023/12/20 02:23:54;;;;;;;17.65;5.15;;;8.10;99.90;;;;;;5010209;28;20099;-74
2023/12/20 02:26:20;;;;;;;24.67;3.97;;;8.10;99.90;;;;;;4993680;28;20497;-74
2023/12/20 02:28:46;;;;;;;25.13;5.25;;;8.10;99.90;;;;;;4993644;28;20034;-77
2023/12/20 02:31:12;;;;;;;17.40;4.45;;;8.00;99.90;;;;;;5009463;28;20026;-74
2023/12/20 02:33:39;;;;;;;25.67;5.10;;;8.00;99.90;;;;;;5011160;28;20474;-73
2023/12/20 02:36:08;;;;;;;18.83;3.97;;;8.00;99.90;;;;;;5009371;28;20037;-74
2023/12/20 02:38:34;;;;;;;20.52;4.55;;;7.90;99.90;;;;;;4994298;28;20115;-73
2023/12/20 02:40:59;;;;;;;20.42;4.85;;;7.90;99.90;;;;;;5008833;28;20065;-75
2023/12/20 02:43:25;;;;;;;21.13;4.80;;;7.90;99.90;;;;;;5014757;28;20040;-75
2023/12/20 02:45:51;;;;;;;25.88;5.38;;;7.90;99.90;;;;;;5009296;28;20550;-75
2023/12/20 02:48:16;;;;;;;19.30;4.85;;;8.00;99.90;;;;;;5014461;28;20562;-74
2023/12/20 02:50:42;;;;;;;24.23;5.28;;;7.90;99.90;;;;;;5012879;28;20459;-74
2023/12/20 02:53:08;;;;;;;20.30;4.95;;;7.90;99.90;;;;;;5009530;28;20378;-74
2023/12/20 02:55:33;;;;;;;25.52;5.43;;;7.90;99.90;;;;;;5014623;28;20639;-74
2023/12/20 02:57:59;;;;;;;23.73;5.97;;;7.80;99.90;;;;;;5014195;28;20128;-74
2023/12/20 03:00:25;;;;;;;19.85;5.40;;;7.80;99.90;;;;;;5013490;28;20037;-74
2023/12/20 03:02:51;;;;;;;26.70;6.63;;;7.80;99.90;;;;;;5013695;28;20045;-75
2023/12/20 03:05:16;;;;;;;20.80;5.50;;;7.70;99.90;;;;;;5013301;28;20825;-74
2023/12/20 03:07:42;;;;;;;21.67;5.32;;;7.80;99.90;;;;;;5013995;28;20390;-75
2023/12/20 03:10:09;;;;;;;24.80;5.80;;;7.80;99.90;;;;;;5012142;28;20521;-74
2023/12/20 03:12:35;;;;;;;27.80;6.28;;;7.70;99.90;;;;;;4997149;28;20037;-74
2023/12/20 03:15:00;;;;;;;24.55;6.13;;;7.70;99.90;;;;;;4994077;28;20040;-75
2023/12/20 03:17:26;;;;;;;23.67;6.10;;;7.70;99.90;;;;;;5013548;28;20048;-77
2023/12/20 03:19:52;;;;;;;22.95;6.38;;;7.70;99.90;;;;;;5009409;28;20030;-74
2023/12/20 03:22:17;;;;;;;26.63;6.50;;;7.70;99.90;;;;;;5013104;28;20554;-74
2023/12/20 03:24:43;;;;;;;28.30;6.32;;;7.70;99.90;;;;;;5010673;28;21219;-74
2023/12/20 03:27:09;;;;;;;23.75;6.93;;;7.80;99.90;;;;;;5012452;28;20115;-75
2023/12/20 03:29:34;;;;;;;18.85;6.00;;;7.80;99.90;;;;;;5014044;28;20022;-74
2023/12/20 03:32:00;;;;;;;20.38;6.28;;;7.70;99.90;;;;;;5014292;28;20376;-74
2023/12/20 03:34:26;;;;;;;22.20;5.90;;;7.80;99.90;;;;;;5014072;28;20109;-75
2023/12/20 03:36:52;;;;;;;22.70;5.80;;;7.70;99.90;;;;;;5012471;28;20554;-75
2023/12/20 03:39:18;;;;;;;27.40;6.25;;;7.80;99.90;;;;;;5011586;28;20108;-74
2023/12/20 03:41:44;;;;;;;26.85;5.95;;;7.80;99.90;;;;;;4996104;28;20022;-73
2023/12/20 03:44:09;;;;;;;24.15;6.35;;;7.90;99.90;;;;;;5011448;28;20455;-74
2023/12/20 03:46:35;;;;;;;36.20;7.55;;;7.80;99.90;;;;;;5012197;28;20459;-75
2023/12/20 03:49:01;;;;;;;26.92;7.15;;;7.70;99.90;;;;;;5011344;28;20065;-74
2023/12/20 03:51:26;;;;;;;25.13;6.03;;;7.70;99.90;;;;;;5013033;28;20542;-74
2023/12/20 03:53:52;;;;;;;18.27;5.85;;;7.70;99.90;;;;;;5010522;28;20061;-74
2023/12/20 03:56:17;;;;;;;23.98;5.88;;;7.70;99.90;;;;;;5012850;28;20474;-74
2023/12/20 03:58:43;;;;;;;25.88;6.20;;;7.80;99.90;;;;;;5011014;28;20494;-75
2023/12/20 04:01:13;;;;;;;31.98;7.68;;;7.80;99.90;;;;;;5013290;28;20103;-75
2023/12/20 04:03:40;;;;;;;31.48;7.28;;;7.80;99.90;;;;;;5010815;28;20078;-74
2023/12/20 04:06:06;;;;;;;29.15;6.57;;;7.80;99.90;;;;;;5012838;28;20026;-74
2023/12/20 04:08:31;;;;;;;25.55;7.47;;;7.80;99.90;;;;;;5010855;28;20101;-74
2023/12/20 04:10:57;;;;;;;31.13;7.47;;;7.80;99.90;;;;;;5010485;28;20133;-76
2023/12/20 04:13:23;;;;;;;29.73;7.63;;;7.70;99.90;;;;;;5010891;28;20034;-75
2023/12/20 04:15:50;;;;;;;25.73;7.50;;;7.70;99.90;;;;;;4993973;28;20054;-76
2023/12/20 04:18:16;;;;;;;33.00;7.57;;;7.80;99.90;;;;;;5011650;28;20149;-74
2023/12/20 04:20:42;;;;;;;24.02;7.35;;;7.80;99.90;;;;;;5012886;28;20117;-76
2023/12/20 04:23:07;;;;;;;23.98;6.72;;;7.80;99.90;;;;;;5009512;28;20107;-74
2023/12/20 04:25:33;;;;;;;35.00;8.40;;;7.90;99.90;;;;;;5012675;28;20489;-74
2023/12/20 04:27:59;;;;;;;30.55;7.18;;;7.80;99.90;;;;;;5012527;28;20602;-75
2023/12/20 04:30:24;;;;;;;23.17;7.03;;;7.80;99.90;;;;;;5008526;28;20026;-78
2023/12/20 04:32:50;;;;;;;27.17;6.38;;;7.80;99.90;;;;;;4992338;28;20391;-76
2023/12/20 04:35:16;;;;;;;17.88;5.78;;;7.80;99.90;;;;;;5010083;28;20067;-75
2023/12/20 04:37:41;;;;;;;32.85;6.72;;;7.80;99.90;;;;;;5011214;28;20030;-75
2023/12/20 04:40:08;;;;;;;26.13;6.15;;;7.90;99.90;;;;;;5011283;28;20462;-74
2023/12/20 04:42:33;;;;;;;24.65;6.43;;;7.90;99.90;;;;;;5010146;28;20439;-74
2023/12/20 04:44:59;;;;;;;21.20;5.32;;;7.90;99.90;;;;;;5012878;28;20061;-74
2023/12/20 04:47:25;;;;;;;26.95;6.38;;;7.90;99.90;;;;;;5008921;28;20018;-74
2023/12/20 04:49:51;;;;;;;25.77;5.35;;;7.90;99.90;;;;;;5011732;28;20100;-75
2023/12/20 04:52:16;;;;;;;32.33;6.68;;;7.90;99.90;;;;;;5011956;28;20068;-74
2023/12/20 04:54:42;;;;;;;28.17;6.68;;;8.00;99.90;;;;;;5010281;28;20084;-75
2023/12/20 04:57:08;;;;;;;26.30;5.78;;;8.00;99.90;;;;;;5011774;28;20022;-75
2023/12/20 04:59:33;;;;;;;25.45;5.47;;;8.00;99.90;;;;;;5012439;28;20018;-74
2023/12/20 05:01:59;;;;;;;21.52;5.60;;;8.00;99.90;;;;;;5011739;28;20449;-77
2023/12/20 05:04:25;;;;;;;25.50;4.85;;;8.00;99.90;;;;;;5008513;28;20475;-75
2023/12/20 05:06:50;;;;;;;32.58;5.70;;;8.00;99.90;;;;;;5011000;28;20475;-74
2023/12/20 05:09:16;;;;;;;23.83;5.22;;;8.00;99.90;;;;;;5007746;28;20634;-74
2023/12/20 05:11:42;;;;;;;24.17;6.35;;;8.10;99.90;;;;;;5011528;28;20029;-76
2023/12/20 05:14:07;;;;;;;28.38;6.05;;;8.10;99.90;;;;;;5010677;28;20034;-74
2023/12/20 05:16:33;;;;;;;24.90;5.72;;;8.00;99.90;;;;;;5008863;28;20034;-75
2023/12/20 05:19:00;;;;;;;28.08;5.95;;;8.00;99.90;;;;;;5011143;28;20091;-75
2023/12/20 05:21:26;;;;;;;23.38;5.90;;;8.00;99.90;;;;;;5009446;28;20427;-74
2023/12/20 05:23:52;;;;;;;26.60;6.05;;;8.00;99.90;;;;;;5010810;28;20545;-73
2023/12/20 05:26:18;;;;;;;32.58;5.60;;;8.00;99.90;;;;;;5003974;28;20456;-74
2023/12/20 05:28:44;;;;;;;25.50;5.72;;;7.90;99.90;;;;;;5011785;28;20113;-74
2023/12/20 05:31:09;;;;;;;26.50;5.70;;;8.00;99.90;;;;;;5009328;28;20029;-74
2023/12/20 05:33:35;;;;;;;27.83;6.05;;;7.80;99.90;;;;;;5011889;28;20034;-74
2023/12/20 05:36:01;;;;;;;24.15;5.90;;;7.90;99.90;;;;;;5009826;28;20030;-74
2023/12/20 05:38:27;;;;;;;26.92;5.68;;;7.90;99.90;;;;;;5011630;28;20348;-74
2023/12/20 05:40:52;;;;;;;24.33;5.93;;;7.90;99.90;;;;;;5009229;28;20061;-74
2023/12/20 05:43:18;;;;;;;24.88;5.55;;;8.00;99.90;;;;;;4990175;28;20030;-74
2023/12/20 05:45:44;;;;;;;29.52;5.95;;;8.00;99.90;;;;;;4992016;28;20698;-75
2023/12/20 05:48:09;;;;;;;29.55;5.90;;;7.90;99.90;;;;;;5010824;28;20529;-74
2023/12/20 05:50:35;;;;;;;26.05;5.60;;;7.80;99.90;;;;;;5009449;28;20114;-74
2023/12/20 05:53:01;;;;;;;34.72;6.22;;;7.90;99.90;;;;;;5010450;28;20034;-74
2023/12/20 05:55:26;;;;;;;30.90;6.47;;;7.90;99.90;;;;;;5011571;28;20144;-74
2023/12/20 05:57:52;;;;;;;30.77;6.60;;;7.80;99.90;;;;;;5007886;28;20026;-74
2023/12/20 06:00:18;;;;;;;29.58;6.05;;;7.90;99.90;;;;;;5010040;28;20540;-74
2023/12/20 06:02:44;;;;;;;23.92;5.15;;;7.90;99.90;;;;;;5007583;28;20042;-74
2023/12/20 06:05:10;;;;;;;33.90;5.75;;;7.90;99.90;;;;;;5006714;28;20505;-74
2023/12/20 06:07:35;;;;;;;31.80;5.30;;;7.90;99.90;;;;;;5008700;28;20084;-74
2023/12/20 06:10:01;;;;;;;26.90;5.88;;;7.80;99.90;;;;;;5010509;28;20561;-74
2023/12/20 06:12:28;;;;;;;20.63;5.43;;;7.80;99.90;;;;;;5010999;28;20452;-74
2023/12/20 06:14:54;;;;;;;27.80;6.10;;;7.70;99.90;;;;;;5006234;28;20130;-74
2023/12/20 06:17:20;;;;;;;35.13;6.68;;;7.70;99.90;;;;;;5010707;28;20118;-74
2023/12/20 06:19:48;;;;;;;29.55;5.53;;;7.70;99.90;;;;;;5008653;28;20109;-75
2023/12/20 06:22:14;;;;;;;29.15;5.15;;;7.70;99.90;;;;;;5010290;28;20065;-74
2023/12/20 06:24:40;;;;;;;31.02;5.97;;;7.70;99.90;;;;;;5010922;28;20100;-74
2023/12/20 06:27:06;;;;;;;25.83;5.93;;;7.50;99.90;;;;;;5007969;28;20117;-74
2023/12/20 06:29:31;;;;;;;32.72;5.63;;;7.50;99.90;;;;;;5011762;28;20084;-74
2023/12/20 06:31:57;;;;;;;20.52;5.53;;;7.50;99.90;;;;;;5008882;28;20149;-74
2023/12/20 06:34:23;;;;;;;25.33;6.20;;;7.50;99.90;;;;;;5008258;28;20113;-75
2023/12/20 06:36:48;;;;;;;19.83;4.88;;;7.50;99.90;;;;;;5009734;28;20033;-74
2023/12/20 06:39:14;;;;;;;35.15;5.55;;;7.50;99.90;;;;;;5009790;28;20414;-74
2023/12/20 06:41:40;;;;;;;31.65;5.45;;;7.50;99.90;;;;;;4988535;28;20038;-74
2023/12/20 06:44:06;;;;;;;22.80;5.55;;;7.50;99.90;;;;;;5009509;28;20033;-74
2023/12/20 06:46:31;;;;;;;26.27;6.38;;;7.50;99.90;;;;;;5006756;28;20041;-74
2023/12/20 06:48:57;;;;;;;27.45;5.80;;;7.40;99.90;;;;;;5010649;28;20026;-74
2023/12/20 06:51:25;;;;;;;28.17;5.28;;;7.40;99.90;;;;;;5010580;28;20053;-75
2023/12/20 06:53:52;;;;;;;24.42;5.25;;;7.40;99.90;;;;;;5009170;28;20038;-74
2023/12/20 06:56:17;;;;;;;22.45;5.10;;;7.40;99.90;;;;;;5010758;28;20117;-74
2023/12/20 06:58:43;;;;;;;24.40;5.18;;;7.30;99.90;;;;;;5010175;28;20108;-79
2023/12/20 07:01:12;;;;;;;32.58;6.70;;;7.30;99.90;;;;;;5007957;28;20104;-74
2023/12/20 07:03:39;;;;;;;25.40;5.28;;;7.30;99.90;;;;;;5010451;28;20034;-74
2023/12/20 07:06:05;;;;;;;28.13;5.82;;;7.30;99.90;;;;;;5006688;28;20568;-74
2023/12/20 07:08:31;;;;;;;28.27;6.22;;;7.30;99.90;;;;;;5010281;28;20041;-74
2023/12/20 07:10:57;;;;;;;26.42;6.18;;;7.20;99.90;;;;;;5007842;28;20061;-74
2023/12/20 07:13:23;;;;;;;27.10;5.25;;;7.30;99.90;;;;;;5010364;28;20050;-75
2023/12/20 07:15:49;;;;;;;23.75;5.60;;;7.20;99.90;;;;;;5007469;28;20529;-76
2023/12/20 07:18:14;;;;;;;25.30;5.50;;;7.20;99.90;;;;;;5009526;28;20026;-75
2023/12/20 07:20:40;;;;;;;21.67;5.82;;;7.20;99.90;;;;;;5007140;28;20501;-74
2023/12/20 07:23:06;;;;;;;31.25;6.13;;;7.10;99.90;;;;;;5009684;28;20445;-81
2023/12/20 07:25:32;;;;;;;25.40;6.22;;;7.10;99.90;;;;;;5003865;28;20417;-78
2023/12/20 07:27:58;;;;;;;41.78;13.32;;;7.10;99.90;;;;;;5009609;28;20569;-74
2023/12/20 07:30:24;;;;;;;20.58;5.63;;;7.10;99.90;;;;;;5013683;28;20030;-76
2023/12/20 07:32:49;;;;;;;26.27;5.28;;;7.10;99.90;;;;;;5010427;28;20021;-76
2023/12/20 07:35:16;;;;;;;26.45;5.65;;;7.20;99.90;;;;;;4993422;28;20044;-76
2023/12/20 07:37:41;;;;;;;28.48;5.70;;;7.20;99.90;;;;;;5011977;28;20056;-76
2023/12/20 07:40:08;;;;;;;27.38;5.88;;;7.20;99.90;;;;;;5013591;28;20498;-77
2023/12/20 07:42:33;;;;;;;24.35;5.60;;;7.20;99.90;;;;;;5012363;28;20040;-78
2023/12/20 07:44:59;;;;;;;24.13;5.40;;;7.20;99.90;;;;;;5010950;28;20038;-76
2023/12/20 07:47:25;;;;;;;32.95;6.38;;;7.10;99.90;;;;;;5011416;28;20605;-76
2023/12/20 07:49:51;;;;;;;23.17;5.18;;;7.10;99.90;;;;;;5007940;28;20041;-76
2023/12/20 07:52:18;;;;;;;27.42;5.10;;;7.10;99.90;;;;;;5013571;28;20018;-77
2023/12/20 07:54:48;;;;;;;23.48;5.70;;;7.10;99.90;;;;;;5012371;28;20022;-76
2023/12/20 07:57:13;;;;;;;20.10;4.78;;;7.10;99.90;;;;;;5012933;28;20030;-76
2023/12/20 07:59:39;;;;;;;22.88;5.20;;;7.10;99.90;;;;;;5012772;28;20025;-78
2023/12/20 08:02:06;;;;;;;32.85;4.97;;;7.20;99.90;;;;;;5012024;28;20461;-76
2023/12/20 08:04:32;;;;;;;29.40;5.07;;;7.10;99.90;;;;;;5009663;28;20368;-75
2023/12/20 08:06:58;;;;;;;26.17;5.60;;;7.20;99.90;;;;;;5013439;28;20076;-76
2023/12/20 08:09:24;;;;;;;24.95;4.65;;;7.30;99.90;;;;;;5012687;28;20031;-76
2023/12/20 08:11:49;;;;;;;30.77;6.25;;;7.30;99.90;;;;;;5013550;28;20429;-76
2023/12/20 08:14:16;;;;;;;23.25;5.15;;;7.30;99.90;;;;;;5014093;28;20037;-76
2023/12/20 08:16:42;;;;;;;24.48;5.05;;;7.30;99.90;;;;;;5012344;28;20058;-75
2023/12/20 08:19:07;;;;;;;24.40;4.55;;;7.40;99.90;;;;;;5011548;28;20434;-76
2023/12/20 08:21:33;;;;;;;30.45;5.75;;;7.40;99.90;;;;;;5012944;28;20096;-76
2023/12/20 08:24:00;;;;;;;26.63;5.88;;;7.40;99.90;;;;;;5012057;28;20045;-75
2023/12/20 08:26:26;;;;;;;18.55;5.13;;;7.40;99.90;;;;;;5012854;28;20030;-76
2023/12/20 08:28:52;;;;;;;22.50;4.90;;;7.40;99.90;;;;;;5011637;28;20105;-75
2023/12/20 08:31:18;;;;;;;26.70;4.75;;;7.40;99.90;;;;;;5008888;28;20109;-77
2023/12/20 08:33:45;;;;;;;26.67;4.93;;;7.50;99.90;;;;;;5011744;28;20061;-75
2023/12/20 08:36:12;;;;;;;24.88;5.07;;;7.50;99.90;;;;;;5012679;28;20554;-75
2023/12/20 08:38:37;;;;;;;22.95;5.63;;;7.40;99.90;;;;;;5012169;28;20079;-76
2023/12/20 08:41:05;;;;;;;18.13;4.05;;;7.50;99.90;;;;;;5010900;28;20061;-75
2023/12/20 08:43:31;;;;;;;28.63;6.07;;;7.40;99.90;;;;;;5012553;28;20061;-76
2023/12/20 08:45:57;;;;;;;28.38;5.43;;;7.50;99.90;;;;;;5011611;28;20109;-76
2023/12/20 08:48:23;;;;;;;20.40;4.63;;;7.50;99.90;;;;;;5010254;28;20103;-76
2023/12/20 08:50:51;;;;;;;22.35;4.70;;;7.50;99.90;;;;;;5009651;28;20053;-76
2023/12/20 08:53:18;;;;;;;20.27;5.65;;;7.60;99.90;;;;;;5011416;28;20121;-77
2023/12/20 08:55:43;;;;;;;23.35;5.65;;;7.50;99.90;;;;;;5006559;28;20065;-75
2023/12/20 08:58:09;;;;;;;21.33;6.28;;;7.50;99.90;;;;;;5011002;28;20498;-76
2023/12/20 09:00:35;;;;;;;28.05;5.57;;;7.60;99.90;;;;;;5011593;28;20487;-76
2023/12/20 09:03:04;;;;;;;28.05;5.35;;;7.50;99.90;;;;;;5009292;28;20046;-76
2023/12/20 09:05:30;;;;;;;28.00;6.18;;;7.50;99.90;;;;;;5010143;28;20037;-76
2023/12/20 09:07:56;;;;;;;24.95;5.15;;;7.60;99.90;;;;;;5008227;28;20105;-77
2023/12/20 09:10:22;;;;;;;20.42;5.63;;;7.60;99.90;;;;;;5011806;28;20117;-77
2023/12/20 09:12:56;;;;;;;16.00;4.80;;;7.60;99.90;;;;;;5012120;28;20542;-78
2023/12/20 09:15:25;;;;;;;18.13;4.90;;;7.60;99.90;;;;;;5010490;28;20972;-77
2023/12/20 09:17:51;;;;;;;28.52;4.88;;;7.60;99.90;;;;;;5009359;28;20034;-77
2023/12/20 09:20:17;;;;;;;20.42;4.47;;;7.60;99.90;;;;;;5010398;28;20109;-76
2023/12/20 09:22:43;;;;;;;26.15;4.28;;;7.60;99.90;;;;;;5010003;28;20064;-76
2023/12/20 09:25:11;;;;;;;25.67;4.47;;;7.70;99.90;;;;;;5009624;28;20033;-77
2023/12/20 09:27:37;;;;;;;26.15;5.68;;;7.70;99.90;;;;;;5012167;28;20061;-76
2023/12/20 09:30:05;;;;;;;22.55;4.82;;;7.70;99.90;;;;;;5011950;28;20026;-76
2023/12/20 09:32:31;;;;;;;28.38;4.32;;;7.70;99.90;;;;;;5011034;28;20045;-75
2023/12/20 09:34:57;;;;;;;26.02;5.15;;;7.70;99.90;;;;;;5010376;28;20573;-76
2023/12/20 09:37:26;;;;;;;23.08;4.85;;;7.70;99.90;;;;;;5011300;28;20482;-76
2023/12/20 09:39:51;;;;;;;24.48;4.75;;;7.80;99.90;;;;;;5012430;28;20033;-77
2023/12/20 09:42:29;;;;;;;25.88;4.47;;;7.80;99.90;;;;;;5007454;28;20042;-74
2023/12/20 09:44:57;;;;;;;20.73;4.57;;;7.90;99.90;;;;;;5010180;28;20022;-74
2023/12/20 09:47:24;;;;;;;22.02;5.00;;;7.90;99.90;;;;;;5011392;28;20045;-75
2023/12/20 09:49:51;;;;;;;26.17;4.80;;;7.90;99.90;;;;;;5009703;28;20091;-75
2023/12/20 09:52:18;;;;;;;21.75;5.47;;;7.90;99.90;;;;;;5011705;28;20108;-76
2023/12/20 09:54:45;;;;;;;23.90;4.32;;;8.00;99.90;;;;;;5010258;28;20025;-75
2023/12/20 09:57:11;;;;;;;18.63;4.75;;;7.90;99.90;;;;;;5010313;28;20030;-74
2023/12/20 09:59:37;;;;;;;24.35;5.45;;;7.90;99.90;;;;;;5008469;28;20018;-75
2023/12/20 10:02:05;;;;;;;27.50;5.05;;;8.00;99.90;;;;;;5010465;28;20048;-74
2023/12/20 10:04:32;;;;;;;20.33;4.55;;;8.00;99.90;;;;;;5010247;28;20471;-73
2023/12/20 10:07:05;;;;;;;23.70;4.80;;;8.10;99.90;;;;;;5010271;28;20087;-73
2023/12/20 10:09:32;;;;;;;18.83;4.25;;;8.10;99.90;;;;;;5010602;28;20411;-74
2023/12/20 10:11:58;;;;;;;30.48;5.88;;;8.10;99.90;;;;;;5011644;28;20033;-74
2023/12/20 10:14:24;;;;;;;20.90;5.25;;;8.10;99.90;;;;;;5009814;28;20072;-74
2023/12/20 10:16:50;;;;;;;20.15;4.80;;;8.10;99.90;;;;;;5010580;28;20038;-75
2023/12/20 10:19:19;;;;;;;24.10;5.32;;;8.10;99.90;;;;;;5010247;28;20384;-74
2023/12/20 10:21:46;;;;;;;22.40;4.57;;;8.20;99.90;;;;;;4986374;28;20034;-75
2023/12/20 10:24:17;;;;;;;20.65;4.78;;;8.20;99.90;;;;;;4979502;28;20034;-75
2023/12/20 10:26:43;;;;;;;22.95;6.15;;;8.20;99.90;;;;;;4995652;28;20029;-74
2023/12/20 10:29:10;;;;;;;20.17;5.28;;;8.20;99.90;;;;;;4985208;28;20052;-73
2023/12/20 10:31:38;;;;;;;18.00;4.68;;;8.30;99.90;;;;;;4989839;28;20371;-75
2023/12/20 10:34:04;;;;;;;26.08;5.20;;;8.30;99.90;;;;;;4990709;28;20037;-74
2023/12/20 10:36:32;;;;;;;19.73;6.28;;;8.30;99.90;;;;;;4995356;28;20034;-74
2023/12/20 10:38:58;;;;;;;22.08;5.45;;;8.40;99.90;;;;;;4993688;28;20018;-74
2023/12/20 10:41:30;;;;;;;22.05;4.10;;;8.40;99.90;;;;;;4995667;28;20025;-74
2023/12/20 10:44:02;;;;;;;21.88;5.63;;;8.40;99.90;;;;;;4993103;28;20030;-74
2023/12/20 10:46:29;;;;;;;19.45;5.43;;;8.40;99.90;;;;;;4993161;28;20022;-75
2023/12/20 10:48:59;;;;;;;22.48;5.20;;;8.40;99.90;;;;;;4978885;28;20478;-74
2023/12/20 10:51:29;;;;;;;23.92;5.38;;;8.50;99.90;;;;;;4992731;28;20034;-74
2023/12/20 10:53:56;;;;;;;24.67;5.45;;;8.50;99.90;;;;;;4997045;28;20991;-75
2023/12/20 10:56:23;;;;;;;27.48;6.38;;;8.50;99.90;;;;;;4996821;28;20026;-74
2023/12/20 10:58:49;;;;;;;21.25;5.38;;;8.50;99.90;;;;;;5002190;28;20022;-75
2023/12/20 11:01:20;;;;;;;26.58;6.38;;;8.50;99.90;;;;;;4989788;28;20069;-75
2023/12/20 11:03:53;;;;;;;25.02;5.75;;;8.50;99.90;;;;;;4982616;28;20454;-76
2023/12/20 11:06:38;;;;;;;27.95;5.70;;;8.60;99.90;;;;;;4987121;28;20120;-74
2023/12/20 11:09:13;;;;;;;22.02;6.10;;;8.70;99.90;;;;;;4987594;28;20557;-74
2023/12/20 11:12:04;;;;;;;22.60;6.00;;;8.70;99.90;;;;;;4999152;28;20057;-75
2023/12/20 11:14:41;;;;;;;22.50;6.10;;;8.60;99.90;;;;;;4999094;28;20022;-74
2023/12/20 11:17:13;;;;;;;32.67;6.53;;;8.70;99.90;;;;;;4996778;28;20034;-75
2023/12/20 11:20:01;;;;;;;23.35;5.35;;;8.60;99.90;;;;;;4998697;28;20022;-74
2023/12/20 11:22:31;;;;;;;21.55;4.30;;;8.60;99.90;;;;;;4997407;28;20041;-75
2023/12/20 11:25:09;;;;;;;17.98;5.45;;;8.60;99.90;;;;;;4998557;28;20063;-74
2023/12/20 11:27:36;;;;;;;20.25;5.25;;;8.70;99.90;;;;;;4998952;28;20025;-75
2023/12/20 11:30:09;;;;;;;18.92;4.72;;;8.60;99.90;;;;;;4999559;28;20072;-74
2023/12/20 11:32:36;;;;;;;24.17;5.22;;;8.70;99.90;;;;;;4997315;28;20706;-74
2023/12/20 11:35:18;;;;;;;22.52;5.55;;;8.60;99.90;;;;;;4996067;28;20030;-75
2023/12/20 11:37:46;;;;;;;19.75;5.15;;;8.70;99.90;;;;;;5000165;28;20014;-74
2023/12/20 11:40:15;;;;;;;23.00;5.05;;;8.70;99.90;;;;;;4999424;28;20105;-75
2023/12/20 11:42:49;;;;;;;31.17;5.38;;;8.70;99.90;;;;;;4995266;28;20509;-76
2023/12/20 11:45:19;;;;;;;24.33;4.78;;;8.80;99.90;;;;;;5000481;28;20030;-75
2023/12/20 11:47:47;;;;;;;27.35;5.30;;;8.80;99.90;;;;;;4994752;28;20018;-75
2023/12/20 11:50:12;;;;;;;17.92;4.57;;;8.80;99.90;;;;;;4997654;28;20056;-74
2023/12/20 11:52:38;;;;;;;20.40;5.15;;;8.90;99.90;;;;;;4997500;28;20022;-74
2023/12/20 11:55:04;;;;;;;14.63;4.35;;;8.90;99.90;;;;;;4999224;28;20045;-75
2023/12/20 11:57:31;;;;;;;24.02;4.82;;;8.90;99.90;;;;;;5000017;28;20026;-74
2023/12/20 11:59:57;;;;;;;24.05;5.10;;;8.90;99.90;;;;;;4997829;28;20014;-74
2023/12/20 12:02:23;;;;;;;29.00;6.13;;;8.90;99.90;;;;;;4996566;28;20073;-75
2023/12/20 12:04:52;;;;;;;23.15;6.22;;;8.80;99.90;;;;;;5001110;28;20061;-74
2023/12/20 12:07:19;;;;;;;29.77;8.18;;;8.90;99.90;;;;;;4997125;28;20076;-75
2023/12/20 12:09:46;;;;;;;21.65;6.20;;;9.00;99.90;;;;;;4999661;28;20026;-75
2023/12/20 12:12:13;;;;;;;22.77;5.90;;;8.90;99.90;;;;;;4997707;28;20033;-76
2023/12/20 12:14:40;;;;;;;24.80;6.05;;;8.90;99.90;;;;;;4998460;28;20019;-75
2023/12/20 12:17:15;;;;;;;25.40;6.18;;;8.90;99.90;;;;;;4983692;28;20029;-74
2023/12/20 12:19:42;;;;;;;20.20;5.38;;;8.90;99.90;;;;;;4983812;28;20017;-75
2023/12/20 12:22:19;;;;;;;17.35;5.60;;;8.90;99.90;;;;;;4996609;28;20125;-75
2023/12/20 12:24:47;;;;;;;24.92;6.47;;;8.90;99.90;;;;;;4999261;28;20430;-76
2023/12/20 12:27:13;;;;;;;25.73;6.63;;;8.90;99.90;;;;;;4994334;28;20031;-74
2023/12/20 12:29:40;;;;;;;18.10;6.22;;;8.90;99.90;;;;;;4997354;28;20034;-74
2023/12/20 12:32:09;;;;;;;26.52;7.13;;;8.90;99.90;;;;;;4992659;28;20088;-75
2023/12/20 12:34:36;;;;;;;22.27;6.88;;;9.00;99.90;;;;;;4995435;28;20034;-75
2023/12/20 12:37:03;;;;;;;25.92;6.97;;;8.90;99.90;;;;;;4994948;28;20027;-74
2023/12/20 12:39:30;;;;;;;26.17;7.07;;;8.90;99.90;;;;;;4994937;28;20369;-75
2023/12/20 12:41:57;;;;;;;30.15;7.53;;;8.90;99.90;;;;;;4994196;28;20065;-77
2023/12/20 12:44:26;;;;;;;21.17;6.97;;;8.90;99.90;;;;;;4995794;28;20033;-74
2023/12/20 12:46:53;;;;;;;26.70;8.27;;;8.90;99.90;;;;;;4994807;28;20069;-73